sensor_id;sensor_type;location;lat;lon;timestamp;pressure;altitude;pressure_sealevel;temperature;humidity
42859;BME280;28505;56.970;40.998;2023-05-14T00:00:35;100663.53;;;6.51;100.00
42859;BME280;28505;56.970;40.998;2023-05-14T00:05:57;100664.19;;;6.42;100.00
42859;BME280;28505;56.970;40.998;2023-05-14T00:11:19;100672.38;;;6.52;100.00
42859;BME280;28505;56.970;40.998;2023-05-14T00:16:42;100665.41;;;6.51;100.00
42859;BME280;28505;56.970;40.998;2023-05-14T00:22:04;100664.44;;;6.40;100.00
42859;BME280;28505;56.970;40.998;2023-05-14T00:27:25;100668.38;;;6.54;100.00
42859;BME280;28505;56.970;40.998;2023-05-14T00:32:48;100666.63;;;6.43;100.00
42859;BME280;28505;56.970;40.998;2023-05-14T00:38:10;100677.50;;;6.37;100.00
42859;BME280;28505;56.970;40.998;2023-05-14T00:43:37;100681.97;;;6.31;100.00
42859;BME280;28505;56.970;40.998;2023-05-14T00:49:00;100690.59;;;6.33;100.00
42859;BME280;28505;56.970;40.998;2023-05-14T00:54:23;100698.03;;;6.31;100.00
42859;BME280;28505;56.970;40.998;2023-05-14T00:59:46;100694.75;;;6.24;100.00
42859;BME280;28505;56.970;40.998;2023-05-14T01:05:09;100698.22;;;6.24;100.00
42859;BME280;28505;56.970;40.998;2023-05-14T01:10:40;100701.75;;;6.25;100.00
42859;BME280;28505;56.970;40.998;2023-05-14T01:16:11;100709.47;;;6.43;100.00
42859;BME280;28505;56.970;40.998;2023-05-14T01:21:37;100711.97;;;6.28;100.00
42859;BME280;28505;56.970;40.998;2023-05-14T01:27:16;100716.78;;;6.31;100.00
42859;BME280;28505;56.970;40.998;2023-05-14T01:32:43;100721.69;;;6.17;100.00
42859;BME280;28505;56.970;40.998;2023-05-14T01:38:10;100729.69;;;6.34;100.00
42859;BME280;28505;56.970;40.998;2023-05-14T01:43:34;100728.13;;;6.55;100.00
42859;BME280;28505;56.970;40.998;2023-05-14T01:48:58;100728.63;;;6.52;100.00
42859;BME280;28505;56.970;40.998;2023-05-14T01:54:22;100734.91;;;6.63;100.00
42859;BME280;28505;56.970;40.998;2023-05-14T01:59:44;100732.63;;;6.71;100.00
42859;BME280;28505;56.970;40.998;2023-05-14T02:05:08;100752.75;;;6.74;100.00
42859;BME280;28505;56.970;40.998;2023-05-14T02:10:34;100756.59;;;6.83;100.00
42859;BME280;28505;56.970;40.998;2023-05-14T02:15:57;100750.25;;;6.89;100.00
42859;BME280;28505;56.970;40.998;2023-05-14T02:21:19;100764.16;;;6.86;100.00
42859;BME280;28505;56.970;40.998;2023-05-14T02:26:42;100760.31;;;6.99;100.00
42859;BME280;28505;56.970;40.998;2023-05-14T02:32:05;100764.97;;;7.09;100.00
42859;BME280;28505;56.970;40.998;2023-05-14T02:37:28;100771.31;;;7.24;100.00
42859;BME280;28505;56.970;40.998;2023-05-14T02:42:50;100762.88;;;7.65;100.00
42859;BME280;28505;56.970;40.998;2023-05-14T02:48:13;100767.03;;;8.05;100.00
42859;BME280;28505;56.970;40.998;2023-05-14T02:53:37;100773.56;;;8.19;100.00
42859;BME280;28505;56.970;40.998;2023-05-14T02:58:59;100774.84;;;8.43;100.00
42859;BME280;28505;56.970;40.998;2023-05-14T03:04:22;100788.41;;;8.64;100.00
42859;BME280;28505;56.970;40.998;2023-05-14T03:09:45;100791.16;;;8.74;100.00
42859;BME280;28505;56.970;40.998;2023-05-14T03:15:08;100776.16;;;8.88;100.00
42859;BME280;28505;56.970;40.998;2023-05-14T03:20:31;100786.22;;;9.08;100.00
42859;BME280;28505;56.970;40.998;2023-05-14T03:25:53;100797.78;;;9.09;100.00
42859;BME280;28505;56.970;40.998;2023-05-14T03:31:17;100791.97;;;9.37;100.00
42859;BME280;28505;56.970;40.998;2023-05-14T03:36:39;100787.75;;;9.72;100.00
42859;BME280;28505;56.970;40.998;2023-05-14T03:42:01;100793.44;;;10.01;100.00
42859;BME280;28505;56.970;40.998;2023-05-14T03:47:24;100788.84;;;9.81;100.00
42859;BME280;28505;56.970;40.998;2023-05-14T03:52:46;100795.31;;;10.16;100.00
42859;BME280;28505;56.970;40.998;2023-05-14T03:58:09;100802.34;;;10.53;100.00
42859;BME280;28505;56.970;40.998;2023-05-14T04:03:34;100805.59;;;10.29;100.00
42859;BME280;28505;56.970;40.998;2023-05-14T04:08:57;100810.97;;;10.29;100.00
42859;BME280;28505;56.970;40.998;2023-05-14T04:14:19;100818.50;;;10.63;100.00
42859;BME280;28505;56.970;40.998;2023-05-14T04:19:42;100818.16;;;10.85;100.00
42859;BME280;28505;56.970;40.998;2023-05-14T04:25:04;100823.78;;;11.09;100.00
42859;BME280;28505;56.970;40.998;2023-05-14T04:30:26;100825.66;;;11.14;100.00
42859;BME280;28505;56.970;40.998;2023-05-14T04:35:48;100835.06;;;11.21;100.00
42859;BME280;28505;56.970;40.998;2023-05-14T04:41:10;100833.78;;;11.63;100.00
42859;BME280;28505;56.970;40.998;2023-05-14T04:46:33;100832.91;;;11.73;100.00
42859;BME280;28505;56.970;40.998;2023-05-14T04:51:55;100828.84;;;11.76;100.00
42859;BME280;28505;56.970;40.998;2023-05-14T04:57:17;100838.69;;;11.56;100.00
42859;BME280;28505;56.970;40.998;2023-05-14T05:02:39;100830.44;;;11.32;100.00
42859;BME280;28505;56.970;40.998;2023-05-14T05:08:02;100831.84;;;11.14;100.00
42859;BME280;28505;56.970;40.998;2023-05-14T05:13:24;100838.38;;;10.98;100.00
42859;BME280;28505;56.970;40.998;2023-05-14T05:18:46;100838.34;;;11.08;100.00
42859;BME280;28505;56.970;40.998;2023-05-14T05:24:12;100837.78;;;11.11;100.00
42859;BME280;28505;56.970;40.998;2023-05-14T05:29:34;100834.75;;;11.38;100.00
42859;BME280;28505;56.970;40.998;2023-05-14T05:34:57;100843.66;;;11.34;100.00
42859;BME280;28505;56.970;40.998;2023-05-14T05:40:22;100841.38;;;12.06;100.00
42859;BME280;28505;56.970;40.998;2023-05-14T05:45:46;100832.19;;;12.41;100.00
42859;BME280;28505;56.970;40.998;2023-05-14T05:51:08;100835.22;;;12.63;100.00
42859;BME280;28505;56.970;40.998;2023-05-14T05:56:30;100836.16;;;13.31;92.42
42859;BME280;28505;56.970;40.998;2023-05-14T06:01:52;100821.53;;;14.40;89.65
42859;BME280;28505;56.970;40.998;2023-05-14T06:07:14;100819.81;;;14.91;77.42
42859;BME280;28505;56.970;40.998;2023-05-14T06:12:37;100834.91;;;14.83;73.44
42859;BME280;28505;56.970;40.998;2023-05-14T06:17:59;100832.38;;;14.40;72.61
42859;BME280;28505;56.970;40.998;2023-05-14T06:23:21;100829.72;;;14.21;78.24
42859;BME280;28505;56.970;40.998;2023-05-14T06:28:43;100827.88;;;14.36;77.63
42859;BME280;28505;56.970;40.998;2023-05-14T06:34:05;100835.81;;;15.20;71.40
42859;BME280;28505;56.970;40.998;2023-05-14T06:39:29;100833.78;;;15.67;67.47
42859;BME280;28505;56.970;40.998;2023-05-14T06:44:51;100832.53;;;16.09;63.17
42859;BME280;28505;56.970;40.998;2023-05-14T06:50:13;100843.88;;;17.19;61.13
42859;BME280;28505;56.970;40.998;2023-05-14T06:55:34;100831.44;;;18.48;55.97
42859;BME280;28505;56.970;40.998;2023-05-14T07:00:57;100839.09;;;19.91;52.73
42859;BME280;28505;56.970;40.998;2023-05-14T07:06:19;100832.19;;;20.60;49.03
42859;BME280;28505;56.970;40.998;2023-05-14T07:11:42;100831.25;;;20.22;51.23
42859;BME280;28505;56.970;40.998;2023-05-14T07:17:08;100831.38;;;18.65;51.92
42859;BME280;28505;56.970;40.998;2023-05-14T07:22:31;100840.56;;;17.48;56.33
42859;BME280;28505;56.970;40.998;2023-05-14T07:27:53;100832.78;;;17.90;53.94
42859;BME280;28505;56.970;40.998;2023-05-14T07:33:16;100827.88;;;17.35;56.60
42859;BME280;28505;56.970;40.998;2023-05-14T07:38:38;100841.47;;;17.26;56.35
42859;BME280;28505;56.970;40.998;2023-05-14T07:44:03;100842.31;;;16.87;56.93
42859;BME280;28505;56.970;40.998;2023-05-14T07:49:25;100839.31;;;17.54;54.13
42859;BME280;28505;56.970;40.998;2023-05-14T07:54:47;100855.13;;;17.35;55.04
42859;BME280;28505;56.970;40.998;2023-05-14T08:00:11;100845.75;;;17.01;53.64
42859;BME280;28505;56.970;40.998;2023-05-14T08:05:34;100853.34;;;16.81;56.64
42859;BME280;28505;56.970;40.998;2023-05-14T08:10:56;100853.63;;;16.49;57.82
42859;BME280;28505;56.970;40.998;2023-05-14T08:16:18;100863.97;;;16.92;57.41
42859;BME280;28505;56.970;40.998;2023-05-14T08:21:43;100867.59;;;16.56;54.88
42859;BME280;28505;56.970;40.998;2023-05-14T08:27:05;100868.28;;;16.17;55.66
42859;BME280;28505;56.970;40.998;2023-05-14T08:32:28;100850.09;;;16.48;55.03
42859;BME280;28505;56.970;40.998;2023-05-14T08:37:50;100847.28;;;16.84;54.70
42859;BME280;28505;56.970;40.998;2023-05-14T08:43:15;100849.22;;;16.61;52.62
42859;BME280;28505;56.970;40.998;2023-05-14T08:48:41;100853.47;;;16.31;56.53
42859;BME280;28505;56.970;40.998;2023-05-14T08:54:04;100843.97;;;16.20;56.15
42859;BME280;28505;56.970;40.998;2023-05-14T08:59:27;100841.16;;;15.89;59.70
42859;BME280;28505;56.970;40.998;2023-05-14T09:04:54;100838.28;;;15.72;58.01
42859;BME280;28505;56.970;40.998;2023-05-14T09:10:16;100846.78;;;14.87;60.17
42859;BME280;28505;56.970;40.998;2023-05-14T09:15:40;100855.03;;;15.37;58.38
42859;BME280;28505;56.970;40.998;2023-05-14T09:21:02;100847.63;;;16.15;57.15
42859;BME280;28505;56.970;40.998;2023-05-14T09:26:26;100853.66;;;15.90;54.72
42859;BME280;28505;56.970;40.998;2023-05-14T09:31:49;100855.19;;;16.72;53.64
42859;BME280;28505;56.970;40.998;2023-05-14T09:37:12;100851.19;;;16.25;53.19
42859;BME280;28505;56.970;40.998;2023-05-14T09:42:34;100859.09;;;15.90;55.21
42859;BME280;28505;56.970;40.998;2023-05-14T09:47:58;100859.47;;;15.47;54.15
42859;BME280;28505;56.970;40.998;2023-05-14T09:53:21;100859.94;;;16.13;54.76
42859;BME280;28505;56.970;40.998;2023-05-14T09:58:43;100864.34;;;16.54;52.17
42859;BME280;28505;56.970;40.998;2023-05-14T10:04:06;100857.28;;;17.06;52.12
42859;BME280;28505;56.970;40.998;2023-05-14T10:09:28;100861.84;;;17.28;52.98
42859;BME280;28505;56.970;40.998;2023-05-14T10:14:54;100862.09;;;17.67;50.77
42859;BME280;28505;56.970;40.998;2023-05-14T10:20:18;100857.84;;;17.26;49.01
42859;BME280;28505;56.970;40.998;2023-05-14T10:25:41;100862.81;;;17.32;50.76
42859;BME280;28505;56.970;40.998;2023-05-14T10:31:04;100856.84;;;18.22;47.69
42859;BME280;28505;56.970;40.998;2023-05-14T10:36:27;100858.28;;;18.11;47.59
42859;BME280;28505;56.970;40.998;2023-05-14T10:41:49;100861.19;;;17.89;49.07
42859;BME280;28505;56.970;40.998;2023-05-14T10:47:11;100863.88;;;17.71;49.34
42859;BME280;28505;56.970;40.998;2023-05-14T10:52:34;100858.16;;;17.24;50.75
42859;BME280;28505;56.970;40.998;2023-05-14T10:57:57;100857.72;;;17.40;49.01
42859;BME280;28505;56.970;40.998;2023-05-14T11:03:22;100866.03;;;17.35;49.40
42859;BME280;28505;56.970;40.998;2023-05-14T11:08:44;100851.34;;;17.04;49.75
42859;BME280;28505;56.970;40.998;2023-05-14T11:14:09;100864.81;;;17.58;49.28
42859;BME280;28505;56.970;40.998;2023-05-14T11:19:31;100856.28;;;17.51;48.81
42859;BME280;28505;56.970;40.998;2023-05-14T11:24:53;100855.81;;;17.49;47.33
42859;BME280;28505;56.970;40.998;2023-05-14T11:30:16;100858.31;;;17.28;50.36
42859;BME280;28505;56.970;40.998;2023-05-14T11:35:46;100850.22;;;17.54;48.97
42859;BME280;28505;56.970;40.998;2023-05-14T11:41:09;100852.78;;;17.68;46.97
42859;BME280;28505;56.970;40.998;2023-05-14T11:46:31;100848.31;;;17.63;46.18
42859;BME280;28505;56.970;40.998;2023-05-14T11:57:20;100846.03;;;17.65;45.39
42859;BME280;28505;56.970;40.998;2023-05-14T12:02:42;100844.56;;;16.93;48.52
42859;BME280;28505;56.970;40.998;2023-05-14T12:08:27;100850.00;;;16.93;49.08
42859;BME280;28505;56.970;40.998;2023-05-14T12:13:49;100848.47;;;16.47;49.09
42859;BME280;28505;56.970;40.998;2023-05-14T12:19:14;100836.66;;;17.23;47.86
42859;BME280;28505;56.970;40.998;2023-05-14T12:24:37;100831.84;;;17.86;46.19
42859;BME280;28505;56.970;40.998;2023-05-14T12:30:03;100828.59;;;18.01;45.46
42859;BME280;28505;56.970;40.998;2023-05-14T12:35:41;100833.53;;;17.47;48.14
42859;BME280;28505;56.970;40.998;2023-05-14T12:41:03;100837.31;;;17.28;49.76
42859;BME280;28505;56.970;40.998;2023-05-14T12:46:26;100829.09;;;17.86;47.79
42859;BME280;28505;56.970;40.998;2023-05-14T12:51:48;100827.59;;;17.45;47.98
42859;BME280;28505;56.970;40.998;2023-05-14T12:57:23;100829.28;;;17.15;49.29
42859;BME280;28505;56.970;40.998;2023-05-14T13:02:45;100823.31;;;17.13;46.85
42859;BME280;28505;56.970;40.998;2023-05-14T13:08:08;100819.38;;;17.36;48.36
42859;BME280;28505;56.970;40.998;2023-05-14T13:13:30;100807.56;;;17.75;48.27
42859;BME280;28505;56.970;40.998;2023-05-14T13:18:52;100812.75;;;16.71;49.16
42859;BME280;28505;56.970;40.998;2023-05-14T13:24:14;100811.03;;;17.32;47.71
42859;BME280;28505;56.970;40.998;2023-05-14T13:29:37;100821.31;;;17.36;47.72
42859;BME280;28505;56.970;40.998;2023-05-14T13:34:59;100805.97;;;17.66;49.85
42859;BME280;28505;56.970;40.998;2023-05-14T13:40:21;100804.59;;;17.11;50.23
42859;BME280;28505;56.970;40.998;2023-05-14T13:45:43;100804.16;;;16.87;50.52
42859;BME280;28505;56.970;40.998;2023-05-14T13:51:05;100806.38;;;16.22;49.53
42859;BME280;28505;56.970;40.998;2023-05-14T13:56:27;100807.78;;;16.42;48.65
42859;BME280;28505;56.970;40.998;2023-05-14T14:01:49;100802.31;;;17.04;49.91
42859;BME280;28505;56.970;40.998;2023-05-14T14:07:12;100808.56;;;17.88;48.23
42859;BME280;28505;56.970;40.998;2023-05-14T14:12:34;100801.53;;;17.04;47.68
42859;BME280;28505;56.970;40.998;2023-05-14T14:17:55;100803.47;;;17.12;47.08
42859;BME280;28505;56.970;40.998;2023-05-14T14:23:18;100808.06;;;16.94;49.18
42859;BME280;28505;56.970;40.998;2023-05-14T14:28:40;100803.94;;;16.74;49.02
42859;BME280;28505;56.970;40.998;2023-05-14T14:34:01;100808.94;;;16.19;49.33
42859;BME280;28505;56.970;40.998;2023-05-14T14:39:23;100806.59;;;15.67;50.98
42859;BME280;28505;56.970;40.998;2023-05-14T14:44:46;100798.84;;;15.46;52.88
42859;BME280;28505;56.970;40.998;2023-05-14T14:50:08;100788.09;;;15.91;53.17
42859;BME280;28505;56.970;40.998;2023-05-14T14:55:30;100796.16;;;16.28;52.19
42859;BME280;28505;56.970;40.998;2023-05-14T15:00:54;100799.56;;;16.11;53.63
42859;BME280;28505;56.970;40.998;2023-05-14T15:06:16;100785.63;;;16.04;52.64
42859;BME280;28505;56.970;40.998;2023-05-14T15:11:39;100793.22;;;16.15;52.07
42859;BME280;28505;56.970;40.998;2023-05-14T15:17:01;100789.03;;;16.41;49.84
42859;BME280;28505;56.970;40.998;2023-05-14T15:22:23;100794.63;;;16.35;52.17
42859;BME280;28505;56.970;40.998;2023-05-14T15:27:45;100790.53;;;16.24;50.97
42859;BME280;28505;56.970;40.998;2023-05-14T15:33:07;100789.31;;;16.08;51.13
42859;BME280;28505;56.970;40.998;2023-05-14T15:38:30;100795.25;;;15.87;51.69
42859;BME280;28505;56.970;40.998;2023-05-14T15:43:52;100790.66;;;15.24;52.48
42859;BME280;28505;56.970;40.998;2023-05-14T15:49:14;100784.94;;;14.84;53.17
42859;BME280;28505;56.970;40.998;2023-05-14T15:54:36;100783.31;;;14.23;55.04
42859;BME280;28505;56.970;40.998;2023-05-14T15:59:58;100779.63;;;14.00;56.96
42859;BME280;28505;56.970;40.998;2023-05-14T16:05:20;100785.88;;;13.63;58.49
42859;BME280;28505;56.970;40.998;2023-05-14T16:10:43;100786.47;;;13.41;59.56
42859;BME280;28505;56.970;40.998;2023-05-14T16:16:05;100779.81;;;12.85;65.67
42859;BME280;28505;56.970;40.998;2023-05-14T16:21:28;100778.47;;;12.58;71.06
42859;BME280;28505;56.970;40.998;2023-05-14T16:26:50;100785.41;;;12.11;75.85
42859;BME280;28505;56.970;40.998;2023-05-14T16:32:12;100783.94;;;11.90;75.15
42859;BME280;28505;56.970;40.998;2023-05-14T16:37:34;100787.13;;;11.58;83.66
42859;BME280;28505;56.970;40.998;2023-05-14T16:42:56;100791.56;;;11.33;93.63
42859;BME280;28505;56.970;40.998;2023-05-14T16:48:19;100793.31;;;10.98;100.00
42859;BME280;28505;56.970;40.998;2023-05-14T16:53:41;100801.22;;;10.80;100.00
42859;BME280;28505;56.970;40.998;2023-05-14T16:59:03;100812.84;;;10.54;100.00
42859;BME280;28505;56.970;40.998;2023-05-14T17:04:28;100808.84;;;10.37;100.00
42859;BME280;28505;56.970;40.998;2023-05-14T17:09:50;100813.09;;;10.07;100.00
42859;BME280;28505;56.970;40.998;2023-05-14T17:15:12;100819.25;;;9.77;100.00
42859;BME280;28505;56.970;40.998;2023-05-14T17:20:35;100819.25;;;9.61;100.00
42859;BME280;28505;56.970;40.998;2023-05-14T17:25:57;100829.63;;;9.37;100.00
42859;BME280;28505;56.970;40.998;2023-05-14T17:31:18;100823.81;;;8.93;100.00
42859;BME280;28505;56.970;40.998;2023-05-14T17:36:42;100825.50;;;8.62;100.00
42859;BME280;28505;56.970;40.998;2023-05-14T17:42:05;100826.97;;;8.42;100.00
42859;BME280;28505;56.970;40.998;2023-05-14T17:47:27;100834.25;;;8.15;100.00
42859;BME280;28505;56.970;40.998;2023-05-14T17:52:50;100827.41;;;8.02;100.00
42859;BME280;28505;56.970;40.998;2023-05-14T17:58:13;100828.38;;;7.91;100.00
42859;BME280;28505;56.970;40.998;2023-05-14T18:03:36;100828.94;;;7.66;100.00
42859;BME280;28505;56.970;40.998;2023-05-14T18:08:58;100831.91;;;7.42;100.00
42859;BME280;28505;56.970;40.998;2023-05-14T18:14:21;100831.94;;;7.25;100.00
42859;BME280;28505;56.970;40.998;2023-05-14T18:19:46;100834.88;;;7.24;100.00
42859;BME280;28505;56.970;40.998;2023-05-14T18:25:09;100838.22;;;6.92;100.00
42859;BME280;28505;56.970;40.998;2023-05-14T18:30:31;100838.16;;;6.87;100.00
42859;BME280;28505;56.970;40.998;2023-05-14T18:35:53;100841.44;;;6.55;100.00
42859;BME280;28505;56.970;40.998;2023-05-14T18:41:15;100837.00;;;6.44;100.00
42859;BME280;28505;56.970;40.998;2023-05-14T18:46:37;100840.81;;;6.48;100.00
42859;BME280;28505;56.970;40.998;2023-05-14T18:51:59;100835.63;;;6.42;100.00
42859;BME280;28505;56.970;40.998;2023-05-14T18:57:21;100834.47;;;6.21;100.00
42859;BME280;28505;56.970;40.998;2023-05-14T19:02:43;100832.00;;;5.74;100.00
42859;BME280;28505;56.970;40.998;2023-05-14T19:08:06;100838.59;;;5.83;100.00
42859;BME280;28505;56.970;40.998;2023-05-14T19:13:28;100832.88;;;5.62;100.00
42859;BME280;28505;56.970;40.998;2023-05-14T19:18:52;100839.00;;;5.46;100.00
42859;BME280;28505;56.970;40.998;2023-05-14T19:24:15;100842.41;;;5.30;100.00
42859;BME280;28505;56.970;40.998;2023-05-14T19:29:37;100842.16;;;5.20;100.00
42859;BME280;28505;56.970;40.998;2023-05-14T19:34:59;100854.38;;;5.15;100.00
42859;BME280;28505;56.970;40.998;2023-05-14T19:40:24;100844.88;;;4.96;100.00
42859;BME280;28505;56.970;40.998;2023-05-14T19:45:46;100842.78;;;4.98;100.00
42859;BME280;28505;56.970;40.998;2023-05-14T19:51:08;100844.44;;;4.76;100.00
42859;BME280;28505;56.970;40.998;2023-05-14T19:56:32;100850.03;;;4.74;100.00
42859;BME280;28505;56.970;40.998;2023-05-14T20:01:54;100847.66;;;4.54;100.00
42859;BME280;28505;56.970;40.998;2023-05-14T20:07:16;100843.75;;;4.45;100.00
42859;BME280;28505;56.970;40.998;2023-05-14T20:13:04;100845.56;;;4.33;100.00
42859;BME280;28505;56.970;40.998;2023-05-14T20:18:26;100848.81;;;4.35;100.00
42859;BME280;28505;56.970;40.998;2023-05-14T20:23:49;100843.66;;;4.10;100.00
42859;BME280;28505;56.970;40.998;2023-05-14T20:29:11;100843.22;;;4.25;100.00
42859;BME280;28505;56.970;40.998;2023-05-14T20:34:35;100835.81;;;4.27;100.00
42859;BME280;28505;56.970;40.998;2023-05-14T20:39:58;100844.94;;;4.07;100.00
42859;BME280;28505;56.970;40.998;2023-05-14T20:45:23;100844.94;;;4.07;100.00
42859;BME280;28505;56.970;40.998;2023-05-14T20:50:46;100843.63;;;3.98;100.00
42859;BME280;28505;56.970;40.998;2023-05-14T20:56:09;100842.06;;;3.79;100.00
42859;BME280;28505;56.970;40.998;2023-05-14T21:01:31;100842.28;;;3.77;100.00
42859;BME280;28505;56.970;40.998;2023-05-14T21:06:54;100839.09;;;3.57;100.00
42859;BME280;28505;56.970;40.998;2023-05-14T21:12:16;100842.56;;;3.57;100.00
42859;BME280;28505;56.970;40.998;2023-05-14T21:17:38;100852.19;;;3.40;100.00
42859;BME280;28505;56.970;40.998;2023-05-14T21:23:01;100850.75;;;3.56;100.00
42859;BME280;28505;56.970;40.998;2023-05-14T21:28:23;100842.06;;;3.30;100.00
42859;BME280;28505;56.970;40.998;2023-05-14T21:33:46;100851.47;;;3.14;100.00
42859;BME280;28505;56.970;40.998;2023-05-14T21:39:09;100842.22;;;3.17;100.00
42859;BME280;28505;56.970;40.998;2023-05-14T21:44:31;100853.97;;;3.09;100.00
42859;BME280;28505;56.970;40.998;2023-05-14T21:49:53;100847.59;;;3.10;100.00
42859;BME280;28505;56.970;40.998;2023-05-14T21:55:15;100842.13;;;2.87;100.00
42859;BME280;28505;56.970;40.998;2023-05-14T22:00:37;100849.84;;;2.95;100.00
42859;BME280;28505;56.970;40.998;2023-05-14T22:06:00;100852.72;;;2.93;100.00
42859;BME280;28505;56.970;40.998;2023-05-14T22:11:22;100843.44;;;2.77;100.00
42859;BME280;28505;56.970;40.998;2023-05-14T22:16:44;100849.31;;;2.86;100.00
42859;BME280;28505;56.970;40.998;2023-05-14T22:22:07;100851.28;;;2.72;100.00
42859;BME280;28505;56.970;40.998;2023-05-14T22:27:30;100854.59;;;2.68;100.00
42859;BME280;28505;56.970;40.998;2023-05-14T22:32:53;100851.72;;;2.69;100.00
42859;BME280;28505;56.970;40.998;2023-05-14T22:38:16;100847.66;;;2.67;100.00
42859;BME280;28505;56.970;40.998;2023-05-14T22:43:38;100845.66;;;2.62;100.00
42859;BME280;28505;56.970;40.998;2023-05-14T22:49:01;100845.78;;;2.49;100.00
42859;BME280;28505;56.970;40.998;2023-05-14T22:54:23;100837.72;;;2.30;100.00
42859;BME280;28505;56.970;40.998;2023-05-14T22:59:45;100841.81;;;2.33;100.00
42859;BME280;28505;56.970;40.998;2023-05-14T23:05:08;100844.94;;;2.23;100.00
42859;BME280;28505;56.970;40.998;2023-05-14T23:10:32;100841.34;;;2.11;100.00
42859;BME280;28505;56.970;40.998;2023-05-14T23:15:55;100843.16;;;2.17;100.00
42859;BME280;28505;56.970;40.998;2023-05-14T23:21:18;100841.91;;;2.20;100.00
42859;BME280;28505;56.970;40.998;2023-05-14T23:26:40;100845.09;;;2.28;100.00
42859;BME280;28505;56.970;40.998;2023-05-14T23:32:03;100845.16;;;2.22;100.00
42859;BME280;28505;56.970;40.998;2023-05-14T23:37:26;100847.84;;;2.15;100.00
42859;BME280;28505;56.970;40.998;2023-05-14T23:42:48;100845.66;;;2.05;100.00
42859;BME280;28505;56.970;40.998;2023-05-14T23:48:10;100843.66;;;2.01;100.00
42859;BME280;28505;56.970;40.998;2023-05-14T23:53:32;100841.75;;;1.76;100.00
42859;BME280;28505;56.970;40.998;2023-05-14T23:58:55;100835.03;;;1.74;100.00
